Prairieville, LA

7:54 AM CST on November 23, 2014 (GMT -0600)
Abby James Rd | Change Station
CLOSE
Current Station
Personal Weather Station
Location: Prairieville, LA
Elevation: 39 ft
Nearby Weather Stations

Elev 39 ft 30.31 °N, 90.93 °W | Updated 4 minutes ago

Mostly Cloudy
Mostly Cloudy
64.3 °F
Feels Like 64.3 °F
N
3.0
Wind Variable Wind from SE
Gusts 3.0 mph

Today
High -- | Low -- °F
--% Chance of Precip.
Yesterday
High -- | Low -- °F
Precip. -- in
6:36 AM 5:03 PM
New Moon, 1% visible
Pressure 29.70 in
Visibility 10.0 miles
Clouds Scattered Clouds 700 ft
Mostly Cloudy 10000 ft
Overcast 12000 ft
Dew Point 59 °F
Humidity 83%
Rainfall 0.30 in
Snow Depth Not available.
UV 0 out of 12
Pollen .40 out of 12
Air Quality Not available.
Flu Activity Not available.
METAR KL38 231335Z AUTO 17009KT 10SM -RA SCT007 BKN100 OVC120 18/18 A2970 RMK AO2 LTG DSNT E T01790178

More Conditions Fewer Conditions

Pressure 29.70 in
Visibility 10.0 miles
Clouds Scattered Clouds 700 ft
Mostly Cloudy 10000 ft
Overcast 12000 ft
Dew Point 59 °F
Humidity 83%
Rainfall 0.30 in
Snow Depth Not available.
UV 0 out of 12
Pollen .40 out of 12
Air Quality Not available.
Flu Activity Not available.
METAR KL38 231335Z AUTO 17009KT 10SM -RA SCT007 BKN100 OVC120 18/18 A2970 RMK AO2 LTG DSNT E T01790178

More Conditions Fewer Conditions

10-Day Weather Forecast

Almanac

Astronomy

Nov. 23, 2014 Rise Set
Actual Time
Civil Twilight
Nautical Twilight
Astronomical Twilight
Moon
Length of Visible Light
Length of Day
Tomorrow will be .
, % of the Moon is Illuminated

Today's Extremes

State Highs State Lows

Community

WunderPhotos

Upload Photos

1,773,062 photos uploaded!

WunderBlogs® & News

Nearby

Air Quality

  Air Quality AQ Index Pollutant
Not available.

Snow Depth

Station Depth Elevation

Earthquake Activity

City Distance Mag. Time & Date
Minimum magnitude displayed is 2.5.

Coastal Water Temperatures

Place Temperature

Nearby Weather Stations